createdAt,value
2018-03-26T00:00:00.978Z,29.35
2018-03-26T00:02:28.451Z,31.40
2018-03-26T00:04:55.911Z,31.10
2018-03-26T00:07:23.368Z,29.23
2018-03-26T00:09:50.853Z,31.40
2018-03-26T00:12:18.308Z,31.60
2018-03-26T00:14:45.788Z,28.85
2018-03-26T00:17:13.255Z,31.60
2018-03-26T00:19:40.729Z,30.25
2018-03-26T00:22:08.276Z,32.50
2018-03-26T00:24:35.754Z,33.03
2018-03-26T00:27:03.538Z,30.23
2018-03-26T00:29:31.002Z,32.90
2018-03-26T00:31:58.479Z,32.45
2018-03-26T00:34:25.942Z,31.95
2018-03-26T00:36:53.432Z,33.08
2018-03-26T00:39:20.922Z,32.05
2018-03-26T00:41:48.400Z,31.85
2018-03-26T00:44:15.859Z,32.70
2018-03-26T00:46:43.326Z,33.40
2018-03-26T00:49:10.791Z,30.90
2018-03-26T00:51:38.251Z,34.45
2018-03-26T00:54:05.775Z,33.47
2018-03-26T00:56:33.361Z,32.53
2018-03-26T00:59:00.844Z,33.50
2018-03-26T01:01:28.328Z,32.22
2018-03-26T01:03:55.837Z,34.95
2018-03-26T01:06:23.345Z,32.70
2018-03-26T01:08:50.820Z,32.97
2018-03-26T01:11:18.332Z,32.63
2018-03-26T01:13:45.863Z,32.40
2018-03-26T01:16:13.369Z,34.22
2018-03-26T01:18:40.831Z,34.72
2018-03-26T01:21:08.303Z,36.28
2018-03-26T01:23:35.791Z,34.38
2018-03-26T01:26:04.515Z,32.10
2018-03-26T01:28:32.720Z,33.85
2018-03-26T01:31:00.179Z,33.17
2018-03-26T01:33:27.639Z,34.88
2018-03-26T01:35:55.140Z,32.40
2018-03-26T01:38:22.622Z,33.70
2018-03-26T01:40:50.112Z,33.25
2018-03-26T01:43:17.564Z,33.95
2018-03-26T01:45:45.052Z,32.53
2018-03-26T01:48:12.531Z,32.75
2018-03-26T01:50:39.997Z,31.95
2018-03-26T01:53:07.580Z,33.70
2018-03-26T01:55:35.039Z,33.72
2018-03-26T01:58:02.534Z,31.58
2018-03-26T02:00:30.004Z,34.03
2018-03-26T02:02:57.466Z,34.20
2018-03-26T02:05:24.948Z,31.52
2018-03-26T02:07:52.458Z,30.60
2018-03-26T02:10:19.932Z,31.45
2018-03-26T02:12:47.438Z,34.80
2018-03-26T02:15:14.929Z,32.42
2018-03-26T02:17:42.399Z,32.78
2018-03-26T02:20:09.942Z,32.60
2018-03-26T02:22:37.479Z,30.58
2018-03-26T02:25:05.102Z,32.72
2018-03-26T02:27:32.566Z,31.87
2018-03-26T02:30:00.097Z,32.28
2018-03-26T02:32:27.558Z,32.95
2018-03-26T02:34:55.024Z,33.08
2018-03-26T02:37:22.492Z,32.47
2018-03-26T02:39:49.967Z,35.45
2018-03-26T02:42:17.507Z,37.30
2018-03-26T02:44:45.020Z,35.40
2018-03-26T02:47:12.484Z,35.30
2018-03-26T02:49:39.972Z,34.13
2018-03-26T02:52:07.434Z,33.60
2018-03-26T02:54:34.893Z,32.25
2018-03-26T02:57:02.376Z,32.88
2018-03-26T02:59:29.834Z,35.30
2018-03-26T03:01:57.291Z,33.33
2018-03-26T03:04:24.782Z,35.58
2018-03-26T03:06:52.299Z,33.08
2018-03-26T03:09:19.786Z,35.83
2018-03-26T03:11:47.274Z,38.47
2018-03-26T03:14:14.731Z,43.13
2018-03-26T03:16:42.315Z,42.30
2018-03-26T03:19:09.819Z,41.47
2018-03-26T03:21:37.311Z,42.47
2018-03-26T03:24:04.789Z,40.47
2018-03-26T03:26:32.272Z,40.53
2018-03-26T03:28:59.728Z,37.30
2018-03-26T03:31:27.210Z,39.22
2018-03-26T03:33:56.345Z,37.53
2018-03-26T03:36:23.813Z,35.50
2018-03-26T03:38:51.297Z,33.58
2018-03-26T03:41:18.765Z,34.95
2018-03-26T03:43:46.366Z,34.03
2018-03-26T03:46:13.852Z,37.20
2018-03-26T03:48:41.317Z,36.58
2018-03-26T03:51:09.948Z,36.85
2018-03-26T03:53:37.757Z,34.05
2018-03-26T03:56:05.223Z,37.38
2018-03-26T03:58:32.699Z,36.55
2018-03-26T04:01:00.156Z,38.47
2018-03-26T04:03:27.623Z,35.92
2018-03-26T04:05:55.100Z,35.75
2018-03-26T04:08:22.654Z,36.58
2018-03-26T04:10:50.115Z,35.67
2018-03-26T04:13:17.600Z,34.97
2018-03-26T04:15:45.084Z,37.78
2018-03-26T04:18:13.128Z,34.67
2018-03-26T04:20:40.591Z,35.60
2018-03-26T04:23:08.062Z,35.20
2018-03-26T04:25:35.536Z,35.22
2018-03-26T04:28:03.018Z,34.75
2018-03-26T04:30:30.507Z,39.20
2018-03-26T04:32:58.004Z,37.03
2018-03-26T04:35:25.506Z,36.42
2018-03-26T04:37:52.968Z,38.25
2018-03-26T04:40:20.442Z,35.40
2018-03-26T04:42:47.919Z,36.75
2018-03-26T04:45:15.375Z,36.42
2018-03-26T04:47:43.036Z,34.88
2018-03-26T04:50:10.495Z,36.47
2018-03-26T04:52:37.980Z,36.00
2018-03-26T04:55:05.460Z,35.03
2018-03-26T04:57:33.459Z,36.70
2018-03-26T05:00:00.935Z,38.97
2018-03-26T05:02:28.453Z,39.20
2018-03-26T05:04:55.925Z,38.10
2018-03-26T05:07:23.398Z,36.95
2018-03-26T05:09:50.866Z,37.42
2018-03-26T05:12:18.319Z,36.63
2018-03-26T05:14:45.895Z,35.83
2018-03-26T05:17:13.379Z,37.05
2018-03-26T05:19:40.833Z,37.90
2018-03-26T05:22:08.386Z,36.33
2018-03-26T05:24:35.872Z,37.75
2018-03-26T05:27:03.386Z,35.45
2018-03-26T05:29:30.867Z,36.97
2018-03-26T05:31:58.328Z,36.53
2018-03-26T05:34:25.808Z,37.00
2018-03-26T05:36:53.274Z,37.33
2018-03-26T05:39:20.779Z,38.95
2018-03-26T05:41:48.255Z,35.08
2018-03-26T05:44:15.727Z,38.80
2018-03-26T05:46:43.215Z,37.88
2018-03-26T05:49:10.671Z,38.05
2018-03-26T05:51:39.114Z,38.90
2018-03-26T05:54:07.531Z,38.17
2018-03-26T05:56:35.152Z,35.28
2018-03-26T05:59:03.602Z,38.22
2018-03-26T06:01:31.376Z,37.55
2018-03-26T06:03:58.988Z,37.60
2018-03-26T06:06:26.534Z,36.50
2018-03-26T06:08:54.181Z,37.58
2018-03-26T06:11:21.744Z,37.65
2018-03-26T06:13:49.390Z,35.90
2018-03-26T06:16:16.876Z,38.78
2018-03-26T06:18:45.955Z,38.30
2018-03-26T06:21:13.426Z,36.80
2018-03-26T06:23:41.003Z,37.22
2018-03-26T06:26:08.559Z,38.97
2018-03-26T06:28:36.018Z,35.80
2018-03-26T06:31:03.475Z,38.37
2018-03-26T06:33:30.967Z,36.43
2018-03-26T06:35:58.737Z,38.37
2018-03-26T06:38:31.892Z,38.93
2018-03-26T06:40:59.501Z,39.80
2018-03-26T06:43:26.995Z,37.73
2018-03-26T06:45:54.507Z,39.77
2018-03-26T06:48:22.171Z,38.30
2018-03-26T06:50:49.675Z,40.07
2018-03-26T06:53:17.390Z,37.60
2018-03-26T07:08:43.419Z,42.70
2018-03-26T07:11:10.906Z,37.87
2018-03-26T07:13:38.394Z,39.47
2018-03-26T07:16:06.036Z,35.23
2018-03-26T07:18:34.049Z,37.53
2018-03-26T07:21:01.553Z,36.33
2018-03-26T07:23:29.043Z,37.37
2018-03-26T07:25:56.630Z,34.87
2018-03-26T07:28:24.348Z,36.27
2018-03-26T07:30:51.839Z,36.53
2018-03-26T07:33:19.341Z,35.50
2018-03-26T07:35:46.913Z,36.00
2018-03-26T07:38:14.319Z,37.03
2018-03-26T07:40:41.828Z,37.30
2018-03-26T07:43:09.321Z,39.63
2018-03-26T07:45:36.790Z,37.60
2018-03-26T07:48:04.297Z,36.33
2018-03-26T07:50:31.824Z,36.50
2018-03-26T07:52:59.993Z,39.27
2018-03-26T07:55:27.847Z,37.63
2018-03-26T07:57:55.472Z,37.60
2018-03-26T08:00:23.024Z,37.60
2018-03-26T08:02:50.598Z,38.80
2018-03-26T08:05:18.091Z,36.70
2018-03-26T08:07:45.748Z,37.93
2018-03-26T08:10:13.215Z,38.37
2018-03-26T08:12:40.699Z,39.40
2018-03-26T08:15:08.202Z,38.13
2018-03-26T08:17:35.705Z,40.17
2018-03-26T08:20:03.911Z,38.73
2018-03-26T08:22:31.440Z,37.27
2018-03-26T08:24:58.936Z,38.93
2018-03-26T08:27:26.468Z,38.37
2018-03-26T08:29:54.032Z,36.70
2018-03-26T08:32:21.527Z,39.23
2018-03-26T08:34:49.018Z,39.33
2018-03-26T08:37:16.540Z,39.83
2018-03-26T08:39:44.027Z,39.53
2018-03-26T08:42:11.585Z,37.27
2018-03-26T08:44:39.126Z,38.13
2018-03-26T08:47:06.612Z,38.43
2018-03-26T08:49:34.204Z,39.50
2018-03-26T08:52:01.688Z,40.40
2018-03-26T08:54:29.241Z,38.93
2018-03-26T08:56:56.808Z,39.90
2018-03-26T08:59:24.536Z,39.07
2018-03-26T09:01:52.101Z,41.30
2018-03-26T09:04:19.665Z,39.43
2018-03-26T09:06:47.175Z,38.87
2018-03-26T09:09:14.675Z,38.70
2018-03-26T09:11:42.225Z,38.20
2018-03-26T09:14:09.792Z,37.60
2018-03-26T09:16:37.370Z,38.70
2018-03-26T09:19:05.207Z,37.77
2018-03-26T09:21:32.753Z,40.97
2018-03-26T09:24:00.318Z,38.20
2018-03-26T09:26:28.317Z,38.30
2018-03-26T09:28:56.068Z,41.47
2018-03-26T09:31:23.646Z,38.73
2018-03-26T09:33:57.469Z,37.97
2018-03-26T09:36:25.066Z,35.53
2018-03-26T09:38:52.665Z,37.47
2018-03-26T09:41:20.460Z,39.07
2018-03-26T09:43:47.998Z,37.90
2018-03-26T09:46:15.516Z,38.77
2018-03-26T09:48:43.094Z,39.27
2018-03-26T09:51:10.596Z,37.87
2018-03-26T09:53:38.155Z,41.37
2018-03-26T09:56:05.669Z,37.90
2018-03-26T09:58:33.190Z,35.70
2018-03-26T10:01:02.480Z,39.20
2018-03-26T10:03:30.006Z,39.53
2018-03-26T10:05:57.582Z,38.93
2018-03-26T10:08:25.091Z,36.40
2018-03-26T10:10:52.556Z,37.23
2018-03-26T10:13:20.024Z,37.13
2018-03-26T10:15:47.505Z,39.83
2018-03-26T10:18:14.978Z,38.03
2018-03-26T10:20:42.460Z,38.30
2018-03-26T10:23:09.953Z,37.60
2018-03-26T10:25:37.458Z,37.77
2018-03-26T10:28:04.951Z,37.23
2018-03-26T10:30:32.452Z,41.00
2018-03-26T10:32:59.941Z,40.20
2018-03-26T10:35:27.416Z,39.63
2018-03-26T10:37:54.953Z,40.07
2018-03-26T10:40:22.487Z,42.80
2018-03-26T10:42:49.940Z,41.00
2018-03-26T10:45:17.464Z,42.27
2018-03-26T10:47:44.972Z,39.60
2018-03-26T10:50:12.530Z,37.47
2018-03-26T10:52:40.005Z,36.53
2018-03-26T10:55:07.475Z,36.53
2018-03-26T10:57:34.938Z,35.70
2018-03-26T11:00:02.459Z,34.70
2018-03-26T11:02:29.915Z,34.20
2018-03-26T11:04:57.378Z,32.67
2018-03-26T11:07:24.889Z,32.20
2018-03-26T11:09:52.349Z,31.97
2018-03-26T11:12:19.880Z,29.00
2018-03-26T11:14:47.375Z,32.10
2018-03-26T11:17:14.831Z,31.50
2018-03-26T11:19:42.312Z,31.63
2018-03-26T11:22:09.777Z,33.73
2018-03-26T11:24:37.246Z,34.27
2018-03-26T11:27:04.742Z,35.87
2018-03-26T11:29:32.219Z,34.23
2018-03-26T11:31:59.686Z,34.80
2018-03-26T11:34:27.169Z,34.80
2018-03-26T11:36:54.640Z,35.13
2018-03-26T11:39:22.108Z,36.50
2018-03-26T11:41:49.668Z,36.77
2018-03-26T11:44:17.141Z,37.13
2018-03-26T11:46:44.625Z,35.87
2018-03-26T11:49:12.083Z,36.83
2018-03-26T11:51:39.567Z,39.10
2018-03-26T11:54:07.124Z,35.13
2018-03-26T11:56:35.337Z,37.83
2018-03-26T11:59:03.438Z,40.03
2018-03-26T12:01:32.672Z,38.20
2018-03-26T12:04:00.175Z,37.87
2018-03-26T12:06:27.664Z,38.00
2018-03-26T12:08:55.224Z,39.67
2018-03-26T12:11:22.716Z,38.53
2018-03-26T12:13:50.192Z,38.70
2018-03-26T12:16:17.929Z,40.63
2018-03-26T12:18:48.043Z,41.20
2018-03-26T12:21:15.515Z,38.40
2018-03-26T12:23:54.761Z,39.57
2018-03-26T12:26:22.969Z,39.57
2018-03-26T12:29:02.234Z,38.00
2018-03-26T12:31:29.696Z,38.57
2018-03-26T12:36:58.364Z,39.67
2018-03-26T12:39:25.848Z,38.77
2018-03-26T12:41:57.117Z,36.93
2018-03-26T12:44:36.151Z,37.70
2018-03-26T12:47:03.657Z,36.30
2018-03-26T12:49:31.136Z,34.10
2018-03-26T12:52:10.327Z,37.33
2018-03-26T12:54:37.802Z,37.50
2018-03-26T12:57:17.060Z,35.90
2018-03-26T12:59:44.537Z,35.77
2018-03-26T13:02:33.990Z,38.27
2018-03-26T13:05:01.490Z,37.87
2018-03-26T13:07:28.970Z,36.20
2018-03-26T13:09:58.388Z,34.27
2018-03-26T13:12:25.871Z,35.30
2018-03-26T13:14:53.425Z,36.80
2018-03-26T13:17:20.981Z,34.43
2018-03-26T13:19:48.525Z,36.43
2018-03-26T13:22:15.994Z,36.77
2018-03-26T13:24:43.478Z,35.07
2018-03-26T13:27:10.930Z,34.83
2018-03-26T13:29:39.249Z,35.03
2018-03-26T13:32:06.737Z,36.13
2018-03-26T13:34:34.227Z,35.90
2018-03-26T13:37:01.683Z,37.20
2018-03-26T13:39:29.138Z,37.10
2018-03-26T13:41:56.669Z,33.33
2018-03-26T13:44:24.463Z,37.30
2018-03-26T13:46:51.916Z,37.10
2018-03-26T13:49:21.525Z,38.20
2018-03-26T13:51:48.991Z,36.83
2018-03-26T13:54:16.455Z,36.67
2018-03-26T13:56:43.960Z,34.10
2018-03-26T13:59:12.686Z,35.00
2018-03-26T14:01:40.171Z,35.37
2018-03-26T14:04:08.731Z,36.00
2018-03-26T14:06:37.165Z,34.67
2018-03-26T14:09:16.343Z,36.10
2018-03-26T14:11:55.521Z,33.73
2018-03-26T14:14:34.833Z,37.67
2018-03-26T14:17:14.090Z,35.33
2018-03-26T14:19:41.583Z,36.40
2018-03-26T14:22:09.053Z,35.40
2018-03-26T14:24:36.517Z,36.50
2018-03-26T14:27:03.998Z,34.70
2018-03-26T14:29:31.543Z,36.10
2018-03-26T14:31:59.015Z,33.77
2018-03-26T14:34:26.436Z,35.37
2018-03-26T14:36:53.922Z,34.23
2018-03-26T14:39:21.404Z,33.70
2018-03-26T14:41:48.875Z,34.17
2018-03-26T14:44:16.338Z,35.17
2018-03-26T14:46:43.823Z,35.43
2018-03-26T14:49:11.422Z,33.57
2018-03-26T14:51:38.915Z,34.83
2018-03-26T14:54:06.395Z,34.33
2018-03-26T14:56:33.874Z,34.57
2018-03-26T14:59:01.336Z,34.30
2018-03-26T15:01:28.837Z,35.33
2018-03-26T15:04:00.869Z,35.93
2018-03-26T15:06:28.360Z,33.20
2018-03-26T15:08:55.831Z,35.83
2018-03-26T15:11:23.304Z,34.93
2018-03-26T15:13:50.783Z,35.87
2018-03-26T15:16:18.248Z,36.50
2018-03-26T15:18:45.710Z,36.47
2018-03-26T15:21:13.185Z,37.03
2018-03-26T15:23:40.684Z,35.70
2018-03-26T15:26:08.153Z,37.00
2018-03-26T15:28:35.618Z,36.90
2018-03-26T15:31:03.140Z,35.53
2018-03-26T15:33:30.602Z,35.60
2018-03-26T15:35:58.074Z,35.27
2018-03-26T15:38:25.542Z,35.50
2018-03-26T15:40:53.033Z,35.13
2018-03-26T15:43:20.498Z,35.80
2018-03-26T15:45:47.969Z,34.60
2018-03-26T15:48:15.473Z,34.87
2018-03-26T15:50:42.952Z,35.47
2018-03-26T15:53:10.659Z,35.00
2018-03-26T15:55:38.108Z,35.43
2018-03-26T15:58:05.579Z,35.93
2018-03-26T16:00:33.039Z,33.87
2018-03-26T16:03:06.127Z,35.00
2018-03-26T16:05:33.583Z,34.50
2018-03-26T16:08:01.031Z,36.50
2018-03-26T16:10:28.637Z,35.00
2018-03-26T16:12:56.103Z,35.40
2018-03-26T16:15:23.576Z,35.03
2018-03-26T16:17:51.078Z,34.77
2018-03-26T16:20:18.564Z,34.27
2018-03-26T16:22:46.032Z,34.17
2018-03-26T16:25:13.534Z,34.23
2018-03-26T16:27:41.042Z,34.87
2018-03-26T16:30:08.522Z,34.07
2018-03-26T16:32:35.980Z,33.60
2018-03-26T16:35:03.461Z,34.93
2018-03-26T16:37:30.944Z,34.63
2018-03-26T16:39:58.398Z,35.83
2018-03-26T16:42:27.459Z,33.90
2018-03-26T16:44:54.944Z,35.87
2018-03-26T16:47:22.454Z,33.57
2018-03-26T16:49:49.931Z,34.83
2018-03-26T16:52:17.429Z,37.67
2018-03-26T16:54:44.928Z,35.90
2018-03-26T16:57:13.509Z,35.60
2018-03-26T16:59:41.098Z,36.13
2018-03-26T17:02:08.668Z,36.37
2018-03-26T17:04:37.054Z,33.50
2018-03-26T17:09:39.112Z,34.70
2018-03-26T17:12:08.349Z,35.00
2018-03-26T17:14:35.988Z,34.53
2018-03-26T17:17:03.560Z,34.00
2018-03-26T17:19:31.102Z,34.67
2018-03-26T17:21:58.589Z,35.10
2018-03-26T17:24:26.106Z,32.63
2018-03-26T17:26:53.760Z,35.47
2018-03-26T17:29:21.306Z,34.50
2018-03-26T17:31:49.762Z,34.30
2018-03-26T17:34:17.286Z,34.83
2018-03-26T17:36:45.062Z,34.43
2018-03-26T17:39:12.598Z,33.70
2018-03-26T17:41:40.172Z,33.77
2018-03-26T17:44:07.700Z,33.50
2018-03-26T17:46:35.237Z,33.70
2018-03-26T17:49:03.157Z,32.37
2018-03-26T17:51:30.700Z,34.77
2018-03-26T17:53:58.240Z,32.47
2018-03-26T17:56:25.773Z,34.10
2018-03-26T17:58:53.283Z,32.70
2018-03-26T18:01:20.844Z,33.20
2018-03-26T18:03:48.312Z,33.13
2018-03-26T18:06:15.820Z,31.73
2018-03-26T18:08:43.446Z,32.23
2018-03-26T18:11:10.975Z,31.80
2018-03-26T18:13:38.473Z,32.83
2018-03-26T18:16:07.060Z,31.03
2018-03-26T18:18:35.257Z,32.40
2018-03-26T18:21:02.917Z,32.13
2018-03-26T18:23:30.429Z,31.90
2018-03-26T18:25:57.981Z,31.40
2018-03-26T18:28:25.474Z,32.23
2018-03-26T18:30:53.066Z,31.03
2018-03-26T18:33:20.562Z,34.03
2018-03-26T18:35:51.198Z,31.97
2018-03-26T18:38:18.764Z,31.87
2018-03-26T18:40:47.479Z,31.07
2018-03-26T18:43:15.593Z,32.93
2018-03-26T18:45:44.400Z,32.77
2018-03-26T18:48:11.958Z,32.20
2018-03-26T18:50:39.580Z,31.20
2018-03-26T18:53:10.484Z,31.37
2018-03-26T18:55:38.025Z,31.10
2018-03-26T18:58:05.513Z,33.10
2018-03-26T19:00:33.124Z,33.40
2018-03-26T19:03:01.088Z,32.30
2018-03-26T19:05:28.716Z,32.20
2018-03-26T19:07:58.345Z,33.10
2018-03-26T19:10:25.913Z,31.07
2018-03-26T19:12:53.525Z,30.80
2018-03-26T19:15:21.310Z,32.70
2018-03-26T19:17:49.835Z,33.20
2018-03-26T19:20:17.456Z,34.07
2018-03-26T19:22:45.069Z,33.03
2018-03-26T19:25:12.673Z,32.70
2018-03-26T19:27:42.838Z,33.23
2018-03-26T19:30:12.058Z,36.67
2018-03-26T19:32:39.575Z,33.40
2018-03-26T19:35:07.096Z,33.80
2018-03-26T19:37:34.701Z,33.20
2018-03-26T19:40:02.225Z,33.37
2018-03-26T19:42:29.768Z,33.60
2018-03-26T19:44:57.320Z,35.00
2018-03-26T19:47:24.921Z,33.00
2018-03-26T19:49:52.508Z,34.00
2018-03-26T19:52:20.570Z,35.67
2018-03-26T19:54:48.458Z,36.87
2018-03-26T19:57:17.404Z,35.00
2018-03-26T19:59:44.898Z,34.17
2018-03-26T20:02:12.538Z,33.80
2018-03-26T20:04:43.112Z,35.17
2018-03-26T20:07:10.745Z,33.60
2018-03-26T20:09:38.244Z,33.03
2018-03-26T20:12:05.847Z,34.43
2018-03-26T20:14:33.473Z,33.27
2018-03-26T20:17:00.947Z,35.20
2018-03-26T20:19:28.481Z,34.07
2018-03-26T20:21:58.886Z,34.43
2018-03-26T20:24:26.503Z,35.60
2018-03-26T20:26:54.029Z,36.13
2018-03-26T20:29:22.943Z,35.43
2018-03-26T20:31:50.522Z,34.83
2018-03-26T20:34:18.084Z,35.90
2018-03-26T20:36:46.417Z,35.00
2018-03-26T20:39:13.944Z,37.53
2018-03-26T20:41:41.479Z,37.27
2018-03-26T20:44:08.985Z,37.77
2018-03-26T20:46:36.496Z,36.10
2018-03-26T20:51:40.950Z,39.73
2018-03-26T20:54:08.830Z,38.93
2018-03-26T20:56:36.368Z,40.70
2018-03-26T20:59:03.944Z,40.70
2018-03-26T21:01:31.458Z,42.90
2018-03-26T21:03:59.056Z,42.17
2018-03-26T21:06:27.287Z,41.83
2018-03-26T21:21:50.495Z,41.60
2018-03-26T21:24:18.024Z,43.57
2018-03-26T21:26:45.669Z,46.97
2018-03-26T21:29:13.163Z,47.00
2018-03-26T21:31:40.729Z,47.67
2018-03-26T21:34:08.235Z,47.60
2018-03-26T21:36:35.721Z,46.80
2018-03-26T21:39:03.236Z,49.60
2018-03-26T21:41:30.734Z,48.03
2018-03-26T21:43:58.221Z,50.00
2018-03-26T21:46:25.824Z,47.10
2018-03-26T21:48:53.320Z,50.23
2018-03-26T21:51:20.955Z,46.30
2018-03-26T21:53:48.613Z,47.17
2018-03-26T21:56:16.273Z,47.20
2018-03-26T21:58:43.836Z,46.73
2018-03-26T22:01:11.346Z,44.83
2018-03-26T22:03:38.879Z,44.47
2018-03-26T22:08:40.377Z,44.13
2018-03-26T22:11:07.906Z,43.90
2018-03-26T22:13:35.376Z,45.83
2018-03-26T22:16:02.914Z,45.77
2018-03-26T22:18:30.396Z,43.80
2018-03-26T22:20:57.917Z,45.33
2018-03-26T22:23:25.478Z,44.07
2018-03-26T22:25:52.992Z,44.87
2018-03-26T22:28:20.543Z,46.37
2018-03-26T22:30:48.065Z,45.90
2018-03-26T22:33:15.551Z,46.87
2018-03-26T22:35:43.153Z,45.70
2018-03-26T22:38:10.632Z,45.87
2018-03-26T22:40:38.167Z,46.30
2018-03-26T22:43:05.794Z,45.40
2018-03-26T22:45:33.267Z,47.50
2018-03-26T22:48:00.756Z,47.10
2018-03-26T22:50:28.752Z,47.53
2018-03-26T22:52:56.323Z,49.80
2018-03-26T22:55:23.830Z,45.90
2018-03-26T22:57:51.351Z,50.30
2018-03-26T23:00:18.883Z,48.00
2018-03-26T23:02:46.376Z,50.33
2018-03-26T23:05:14.826Z,49.37
2018-03-26T23:07:43.150Z,50.50
2018-03-26T23:10:10.692Z,51.50
2018-03-26T23:12:39.275Z,51.20
2018-03-26T23:15:07.369Z,54.73
2018-03-26T23:17:35.486Z,53.40
2018-03-26T23:20:03.502Z,56.87
2018-03-26T23:22:42.812Z,55.60
2018-03-26T23:25:10.367Z,58.50
2018-03-26T23:27:38.133Z,56.53
2018-03-26T23:30:10.069Z,57.17
2018-03-26T23:32:37.686Z,54.63
2018-03-26T23:35:06.167Z,56.70
2018-03-26T23:37:33.735Z,54.27
2018-03-26T23:40:01.347Z,56.10
2018-03-26T23:42:28.954Z,55.33
2018-03-26T23:44:56.868Z,57.47
2018-03-26T23:47:24.575Z,54.70
2018-03-26T23:49:52.085Z,54.87
2018-03-26T23:52:19.604Z,55.37
2018-03-26T23:54:47.238Z,54.60
2018-03-26T23:57:14.892Z,55.03
2018-03-26T23:59:42.462Z,55.07
